Time;durP1;ratioP1;P1;durP2;ratioP2;P2;SDS_P1;SDS_P2;PMS_P1;PMS_P2;Temp;Humidity;BMP_temperature;BMP_pressure;BME280_temperature;BME280_humidity;BME280_pressure;Samples;Min_cycle;Max_cycle;Signal;HPM_P1;HPM_P2
2023/08/22 00:00:13;;;;;;;12.35;10.20;;;18.30;99.90;;;;;;5034008;28;20395;-75
2023/08/22 00:02:39;;;;;;;11.00;9.32;;;18.30;99.90;;;;;;5032491;28;20074;-76
2023/08/22 00:05:06;;;;;;;8.70;7.90;;;18.30;99.90;;;;;;5033204;28;20421;-76
2023/08/22 00:07:31;;;;;;;8.25;7.32;;;18.20;99.90;;;;;;5032977;28;20026;-76
2023/08/22 00:09:57;;;;;;;5.15;4.72;;;18.20;99.90;;;;;;5032107;28;20022;-78
2023/08/22 00:12:23;;;;;;;4.57;4.18;;;18.10;99.90;;;;;;5034326;28;20493;-78
2023/08/22 00:14:50;;;;;;;7.65;5.18;;;18.00;99.90;;;;;;5032782;28;20113;-79
2023/08/22 00:17:16;;;;;;;7.72;7.03;;;17.90;99.90;;;;;;5032605;28;20045;-78
2023/08/22 00:19:42;;;;;;;10.55;8.63;;;17.90;99.90;;;;;;5032585;28;20018;-78
2023/08/22 00:22:08;;;;;;;7.80;7.10;;;17.90;99.90;;;;;;5033321;28;20031;-76
2023/08/22 00:24:35;;;;;;;7.10;6.25;;;17.90;99.90;;;;;;5032420;28;20494;-75
2023/08/22 00:27:01;;;;;;;10.00;7.53;;;17.90;99.90;;;;;;5038970;28;20026;-75
2023/08/22 00:29:27;;;;;;;10.32;9.23;;;17.90;99.90;;;;;;5020821;28;20021;-75
2023/08/22 00:31:52;;;;;;;15.20;10.45;;;17.80;99.90;;;;;;5033477;28;20025;-78
2023/08/22 00:34:18;;;;;;;12.18;9.82;;;17.80;99.90;;;;;;5033746;28;20018;-76
2023/08/22 00:36:44;;;;;;;13.23;10.05;;;17.80;99.90;;;;;;5033689;28;20379;-76
2023/08/22 00:39:09;;;;;;;11.88;8.50;;;17.80;99.90;;;;;;5033260;28;20040;-75
2023/08/22 00:41:35;;;;;;;10.30;8.68;;;17.70;99.90;;;;;;5033561;28;20494;-76
2023/08/22 00:44:00;;;;;;;11.40;9.13;;;17.70;99.90;;;;;;5033384;28;20044;-79
2023/08/22 00:46:28;;;;;;;10.02;8.85;;;17.70;99.90;;;;;;5032432;28;20057;-76
2023/08/22 00:48:54;;;;;;;12.85;10.65;;;17.70;99.90;;;;;;5032139;28;20386;-78
2023/08/22 00:51:20;;;;;;;14.30;11.18;;;17.70;99.90;;;;;;5030138;28;20108;-76
2023/08/22 00:53:47;;;;;;;13.70;12.20;;;17.70;99.90;;;;;;5029346;28;20029;-78
2023/08/22 00:56:13;;;;;;;15.00;13.07;;;17.60;99.90;;;;;;5033572;28;20021;-78
2023/08/22 00:58:39;;;;;;;13.05;11.43;;;17.70;99.90;;;;;;5033102;28;20505;-76
2023/08/22 01:01:05;;;;;;;11.65;10.45;;;17.60;99.90;;;;;;5031794;28;20371;-79
2023/08/22 01:03:31;;;;;;;12.75;10.13;;;17.60;99.90;;;;;;5031605;28;20033;-79
2023/08/22 01:06:32;;;;;;;12.98;10.73;;;17.60;99.90;;;;;;5031831;28;20039;-78
2023/08/22 01:09:04;;;;;;;14.32;11.23;;;17.60;99.90;;;;;;5010106;28;20033;-76
2023/08/22 01:11:38;;;;;;;14.73;10.88;;;17.60;99.90;;;;;;5033517;28;20049;-78
2023/08/22 01:14:09;;;;;;;11.75;10.10;;;17.50;99.90;;;;;;5032696;28;20076;-78
2023/08/22 01:16:36;;;;;;;14.50;11.00;;;17.50;99.90;;;;;;5032970;28;20123;-78
2023/08/22 01:19:04;;;;;;;10.57;9.13;;;17.50;99.90;;;;;;5032624;28;20037;-76
2023/08/22 01:21:34;;;;;;;10.20;8.75;;;17.50;99.90;;;;;;5033356;28;20026;-77
2023/08/22 01:24:00;;;;;;;8.63;7.72;;;17.40;99.90;;;;;;5032746;28;20068;-76
2023/08/22 01:26:26;;;;;;;8.90;8.00;;;17.30;99.90;;;;;;5033252;28;20030;-75
2023/08/22 01:28:58;;;;;;;10.00;8.48;;;17.30;99.90;;;;;;5033006;28;20029;-78
2023/08/22 01:31:38;;;;;;;9.38;8.35;;;17.30;99.90;;;;;;5032698;28;20017;-78
2023/08/22 01:34:29;;;;;;;10.73;9.10;;;17.30;99.90;;;;;;5031337;28;20024;-79
2023/08/22 01:36:56;;;;;;;10.88;9.50;;;17.30;99.90;;;;;;5032489;28;20045;-78
2023/08/22 01:39:24;;;;;;;9.85;8.85;;;17.20;99.90;;;;;;5030467;28;20542;-76
2023/08/22 01:41:50;;;;;;;8.02;7.22;;;17.20;99.90;;;;;;5031872;28;20057;-79
2023/08/22 01:44:16;;;;;;;9.30;8.25;;;17.20;99.90;;;;;;5032492;28;20049;-76
2023/08/22 01:46:42;;;;;;;7.45;6.75;;;17.10;99.90;;;;;;5031501;28;20391;-79
2023/08/22 01:49:07;;;;;;;7.95;6.40;;;17.10;99.90;;;;;;5031319;28;20021;-79
2023/08/22 01:51:33;;;;;;;6.38;5.78;;;17.00;99.90;;;;;;5033214;28;20018;-79
2023/08/22 01:53:59;;;;;;;14.57;10.68;;;17.00;99.90;;;;;;5032483;28;20021;-76
2023/08/22 01:56:24;;;;;;;12.23;10.13;;;17.00;99.90;;;;;;5031638;28;20052;-79
2023/08/22 01:58:50;;;;;;;10.60;9.50;;;16.90;99.90;;;;;;5032460;28;20391;-76
2023/08/22 02:01:16;;;;;;;14.13;10.45;;;16.90;99.90;;;;;;5031281;28;20479;-78
2023/08/22 02:03:42;;;;;;;13.15;10.52;;;16.90;99.90;;;;;;5032271;28;20028;-77
2023/08/22 02:06:08;;;;;;;12.40;10.30;;;16.90;99.90;;;;;;5031220;28;20022;-76
2023/08/22 02:08:34;;;;;;;15.25;10.63;;;16.90;99.90;;;;;;5030768;28;20029;-77
2023/08/22 02:11:00;;;;;;;11.55;10.15;;;16.80;99.90;;;;;;5031057;28;20025;-79
2023/08/22 02:13:25;;;;;;;12.30;9.68;;;16.80;99.90;;;;;;5032167;28;20032;-76
2023/08/22 02:15:51;;;;;;;12.70;10.20;;;16.90;99.90;;;;;;5031326;28;20022;-79
2023/08/22 02:18:17;;;;;;;12.60;9.57;;;16.80;99.90;;;;;;5031693;28;20049;-79
2023/08/22 02:20:43;;;;;;;11.32;10.13;;;16.80;99.90;;;;;;5032576;28;20391;-79
2023/08/22 02:23:09;;;;;;;12.38;11.07;;;16.80;99.90;;;;;;5030860;28;20029;-78
2023/08/22 02:25:35;;;;;;;13.35;10.60;;;16.80;99.90;;;;;;5031434;28;20402;-78
2023/08/22 02:28:02;;;;;;;15.27;11.13;;;16.80;99.90;;;;;;5032067;28;20117;-76
2023/08/22 02:30:27;;;;;;;12.00;10.80;;;16.80;99.90;;;;;;5032622;28;20104;-76
2023/08/22 02:32:53;;;;;;;14.23;10.38;;;16.80;99.90;;;;;;5030702;28;20425;-78
2023/08/22 02:35:19;;;;;;;11.27;10.18;;;16.80;99.90;;;;;;5032430;28;20071;-77
2023/08/22 02:37:45;;;;;;;16.83;9.60;;;16.80;99.90;;;;;;5032205;28;20395;-76
2023/08/22 02:40:11;;;;;;;9.48;8.57;;;16.80;99.90;;;;;;5030991;28;20030;-78
2023/08/22 02:42:38;;;;;;;8.77;7.15;;;16.70;99.90;;;;;;5046554;28;20021;-76
2023/08/22 02:45:05;;;;;;;8.98;6.05;;;16.70;99.90;;;;;;5032055;28;20383;-76
2023/08/22 02:47:31;;;;;;;12.65;9.27;;;16.60;99.90;;;;;;5030805;28;20030;-76
2023/08/22 02:49:57;;;;;;;11.63;9.95;;;16.60;99.90;;;;;;5033020;28;20386;-78
2023/08/22 02:52:23;;;;;;;15.75;9.13;;;16.60;99.90;;;;;;5035702;28;20033;-78
2023/08/22 02:54:48;;;;;;;8.40;7.65;;;16.60;99.90;;;;;;5035711;28;20388;-77
2023/08/22 02:57:14;;;;;;;9.50;7.93;;;16.60;99.90;;;;;;5034082;28;20711;-76
2023/08/22 02:59:40;;;;;;;7.72;7.03;;;16.50;99.90;;;;;;5034537;28;20021;-79
2023/08/22 03:02:05;;;;;;;6.30;5.70;;;16.60;99.90;;;;;;5035308;28;20025;-76
2023/08/22 03:04:33;;;;;;;6.50;4.90;;;16.60;99.90;;;;;;5034597;28;20020;-77
2023/08/22 03:06:59;;;;;;;9.10;7.28;;;16.50;99.90;;;;;;5034122;28;20021;-78
2023/08/22 03:09:25;;;;;;;8.73;7.60;;;16.50;99.90;;;;;;5034305;28;20076;-76
2023/08/22 03:11:50;;;;;;;9.98;8.98;;;16.50;99.90;;;;;;5035115;28;20471;-76
2023/08/22 03:14:16;;;;;;;9.18;7.70;;;16.50;99.90;;;;;;5035322;28;20036;-79
2023/08/22 03:16:41;;;;;;;8.90;7.72;;;16.50;99.90;;;;;;5034914;28;20049;-78
2023/08/22 03:19:07;;;;;;;9.75;8.27;;;16.50;99.90;;;;;;5033992;28;20045;-79
2023/08/22 03:21:32;;;;;;;10.50;8.30;;;16.50;99.90;;;;;;5033918;28;20064;-77
2023/08/22 03:23:58;;;;;;;10.27;8.73;;;16.40;99.90;;;;;;5033897;28;20028;-79
2023/08/22 03:26:25;;;;;;;8.75;7.85;;;16.40;99.90;;;;;;5034946;28;20479;-78
2023/08/22 03:28:51;;;;;;;10.70;8.82;;;16.40;99.90;;;;;;5035232;28;20029;-79
2023/08/22 03:31:17;;;;;;;10.95;8.73;;;16.40;99.90;;;;;;5034684;28;20033;-76
2023/08/22 03:33:42;;;;;;;10.32;8.35;;;16.40;99.90;;;;;;5035147;28;20057;-79
2023/08/22 03:36:08;;;;;;;14.73;10.45;;;16.40;99.90;;;;;;5033589;28;20022;-76
2023/08/22 03:38:34;;;;;;;13.90;9.77;;;16.40;99.90;;;;;;5033736;28;20116;-76
2023/08/22 03:40:59;;;;;;;11.18;9.00;;;16.40;99.90;;;;;;5033439;28;20037;-76
2023/08/22 03:43:26;;;;;;;15.43;9.70;;;16.40;99.90;;;;;;5034618;28;20026;-76
2023/08/22 03:45:51;;;;;;;11.25;8.05;;;16.40;99.90;;;;;;5034934;28;20541;-78
2023/08/22 03:48:17;;;;;;;8.13;7.32;;;16.30;99.90;;;;;;5033453;28;20045;-79
2023/08/22 03:50:43;;;;;;;9.30;7.13;;;16.30;99.90;;;;;;5032693;28;20022;-79
2023/08/22 03:53:10;;;;;;;8.18;6.90;;;16.30;99.90;;;;;;5030769;28;20021;-79
2023/08/22 03:55:35;;;;;;;10.05;7.13;;;16.30;99.90;;;;;;5033390;28;20053;-79
2023/08/22 03:58:02;;;;;;;8.00;7.20;;;16.30;99.90;;;;;;5034247;28;20072;-76
2023/08/22 04:00:27;;;;;;;7.07;6.38;;;16.40;99.90;;;;;;5033425;28;20021;-76
2023/08/22 04:02:57;;;;;;;4.82;4.43;;;16.30;99.90;;;;;;5032416;28;20018;-79
2023/08/22 04:05:23;;;;;;;5.00;4.60;;;16.30;99.90;;;;;;5034242;28;20036;-79
2023/08/22 04:07:50;;;;;;;6.05;5.47;;;16.30;99.90;;;;;;5033150;28;20422;-76
2023/08/22 04:10:16;;;;;;;5.47;4.90;;;16.20;99.90;;;;;;5030779;28;20104;-76
2023/08/22 04:12:42;;;;;;;9.13;7.05;;;16.20;99.90;;;;;;5033247;28;20052;-79
2023/08/22 04:15:09;;;;;;;8.77;5.35;;;16.20;99.90;;;;;;5049204;28;20022;-77
2023/08/22 04:17:35;;;;;;;5.97;5.35;;;16.20;99.90;;;;;;5016171;28;20057;-79
2023/08/22 04:20:03;;;;;;;11.88;6.97;;;16.20;99.90;;;;;;5033574;28;20017;-79
2023/08/22 04:22:30;;;;;;;7.93;6.85;;;16.30;99.90;;;;;;5032734;28;20103;-79
2023/08/22 04:24:56;;;;;;;9.95;6.45;;;16.30;99.90;;;;;;5033696;28;20159;-77
2023/08/22 04:27:22;;;;;;;9.13;7.65;;;16.40;99.90;;;;;;5032767;28;20087;-76
2023/08/22 04:29:48;;;;;;;8.48;7.07;;;16.50;99.90;;;;;;5032200;28;20018;-77
2023/08/22 04:32:13;;;;;;;8.52;6.18;;;16.50;99.90;;;;;;5032511;28;20017;-77
2023/08/22 04:34:39;;;;;;;6.00;5.40;;;16.50;99.90;;;;;;5032225;28;20017;-77
2023/08/22 04:37:05;;;;;;;5.68;4.97;;;16.60;99.90;;;;;;5033691;28;20101;-80
2023/08/22 04:39:30;;;;;;;14.40;6.05;;;16.70;99.90;;;;;;5033198;28;20100;-77
2023/08/22 04:41:56;;;;;;;5.55;4.78;;;16.70;99.90;;;;;;5032602;28;20022;-77
2023/08/22 04:44:22;;;;;;;5.97;5.03;;;16.80;99.90;;;;;;5033385;28;20392;-80
2023/08/22 04:46:47;;;;;;;8.60;5.53;;;16.90;99.90;;;;;;5033890;28;20051;-80
2023/08/22 04:49:13;;;;;;;7.15;5.45;;;17.00;99.90;;;;;;5033194;28;20053;-77
2023/08/22 04:51:38;;;;;;;7.93;6.28;;;17.20;99.90;;;;;;5015849;28;20017;-79
2023/08/22 04:54:04;;;;;;;6.60;5.07;;;17.30;99.90;;;;;;5031842;28;20112;-77
2023/08/22 04:56:30;;;;;;;5.03;4.63;;;17.40;99.90;;;;;;5032326;28;20471;-78
2023/08/22 04:58:55;;;;;;;5.47;4.95;;;17.50;99.90;;;;;;5031354;28;20064;-80
2023/08/22 05:01:21;;;;;;;10.02;5.25;;;17.60;99.90;;;;;;5031585;28;20025;-80
2023/08/22 05:03:47;;;;;;;5.45;4.45;;;17.70;99.90;;;;;;5033210;28;20490;-80
2023/08/22 05:06:13;;;;;;;5.22;4.43;;;17.70;99.90;;;;;;5029904;28;20469;-80
2023/08/22 05:08:38;;;;;;;8.30;5.63;;;17.80;99.90;;;;;;5029806;28;20128;-78
2023/08/22 05:11:04;;;;;;;8.07;5.65;;;17.80;99.90;;;;;;5032245;28;20048;-78
2023/08/22 05:13:29;;;;;;;9.90;8.90;;;17.90;99.90;;;;;;5030431;28;20104;-78
2023/08/22 05:15:55;;;;;;;10.13;8.90;;;18.10;99.90;;;;;;5032209;28;20589;-78
2023/08/22 05:18:21;;;;;;;11.63;8.70;;;18.20;99.90;;;;;;5029593;28;20395;-78
2023/08/22 05:20:50;;;;;;;8.20;7.50;;;18.30;99.90;;;;;;5021936;28;20025;-78
2023/08/22 05:23:16;;;;;;;10.25;7.15;;;18.40;99.90;;;;;;5015855;28;20028;-77
2023/08/22 05:25:42;;;;;;;9.07;7.47;;;18.50;99.90;;;;;;5028354;28;20108;-78
2023/08/22 05:28:08;;;;;;;8.15;7.35;;;18.60;99.90;;;;;;5024819;28;20024;-80
2023/08/22 05:30:36;;;;;;;8.80;7.95;;;18.60;99.90;;;;;;5032153;28;20478;-80
2023/08/22 05:33:02;;;;;;;9.75;8.35;;;18.70;99.90;;;;;;5032261;28;20079;-77
2023/08/22 05:35:28;;;;;;;8.73;7.85;;;18.90;99.90;;;;;;5032790;28;20022;-77
2023/08/22 05:37:54;;;;;;;11.00;9.20;;;19.10;99.90;;;;;;5032269;28;20051;-80
2023/08/22 05:40:19;;;;;;;12.20;10.15;;;19.20;99.90;;;;;;5032742;28;20025;-78
2023/08/22 05:42:45;;;;;;;15.02;10.75;;;19.50;99.90;;;;;;5030598;28;20056;-80
2023/08/22 05:45:10;;;;;;;13.52;10.65;;;19.60;99.90;;;;;;5028561;28;20013;-80
2023/08/22 05:47:36;;;;;;;12.38;9.65;;;19.80;99.90;;;;;;5024697;28;20697;-80
2023/08/22 05:50:03;;;;;;;13.32;11.20;;;20.00;99.90;;;;;;5024857;28;20032;-78
2023/08/22 05:52:29;;;;;;;12.02;8.82;;;20.20;99.90;;;;;;5022829;28;20076;-75
2023/08/22 05:54:55;;;;;;;11.73;8.82;;;20.40;99.90;;;;;;5027806;28;20030;-78
2023/08/22 05:57:22;;;;;;;12.63;10.63;;;20.60;99.90;;;;;;5025056;28;20029;-78
2023/08/22 05:59:49;;;;;;;11.20;9.00;;;20.80;99.90;;;;;;5029599;28;20426;-75
2023/08/22 06:02:14;;;;;;;10.18;8.98;;;21.00;99.90;;;;;;5026917;28;20052;-78
2023/08/22 06:04:40;;;;;;;10.93;9.30;;;21.10;99.90;;;;;;5029238;28;20013;-77
2023/08/22 06:07:06;;;;;;;9.55;8.52;;;21.30;99.90;;;;;;5029421;28;20017;-76
2023/08/22 06:09:31;;;;;;;9.27;8.43;;;21.40;99.90;;;;;;5030729;28;20053;-78
2023/08/22 06:11:57;;;;;;;9.02;8.05;;;21.60;99.90;;;;;;5032199;28;20434;-76
2023/08/22 06:14:22;;;;;;;7.78;6.95;;;21.80;99.90;;;;;;5031282;28;20028;-76
2023/08/22 06:16:48;;;;;;;9.27;7.32;;;22.00;99.90;;;;;;5030157;28;20570;-76
2023/08/22 06:19:13;;;;;;;14.90;7.80;;;22.10;99.90;;;;;;5029037;28;20064;-78
2023/08/22 06:21:39;;;;;;;10.05;7.43;;;22.30;99.90;;;;;;5030473;28;20100;-76
2023/08/22 06:24:05;;;;;;;8.18;7.43;;;22.40;99.90;;;;;;5030368;28;20034;-79
2023/08/22 06:26:31;;;;;;;9.02;6.90;;;22.60;99.90;;;;;;5033647;28;20096;-76
2023/08/22 06:28:56;;;;;;;7.97;7.18;;;22.80;99.90;;;;;;5032955;28;20112;-77
2023/08/22 06:31:22;;;;;;;8.77;7.88;;;23.00;99.90;;;;;;5033977;28;20495;-78
2023/08/22 06:33:48;;;;;;;8.52;7.65;;;23.20;99.90;;;;;;5035673;28;20048;-76
2023/08/22 06:36:13;;;;;;;10.95;7.90;;;23.30;99.90;;;;;;5034801;28;20430;-77
2023/08/22 06:38:39;;;;;;;10.52;6.55;;;23.50;99.90;;;;;;5036130;28;20029;-78
2023/08/22 06:41:05;;;;;;;12.25;6.90;;;23.60;99.90;;;;;;5035882;28;20036;-79
2023/08/22 06:43:30;;;;;;;8.32;5.85;;;23.80;99.90;;;;;;5034732;28;20083;-78
2023/08/22 06:45:57;;;;;;;13.57;6.82;;;24.00;99.90;;;;;;5035705;28;20387;-76
2023/08/22 06:48:22;;;;;;;7.88;5.70;;;24.20;97.40;;;;;;5035857;28;20021;-79
2023/08/22 06:50:51;;;;;;;5.38;4.90;;;24.30;92.20;;;;;;5034112;28;20030;-78
2023/08/22 06:53:17;;;;;;;7.28;4.90;;;24.50;87.80;;;;;;5036857;28;20372;-78
2023/08/22 06:55:46;;;;;;;5.63;4.25;;;24.60;85.90;;;;;;5035517;28;20028;-79
2023/08/22 06:58:12;;;;;;;5.50;4.63;;;24.70;79.60;;;;;;5034347;28;20030;-76
2023/08/22 07:00:37;;;;;;;4.63;4.25;;;24.80;75.20;;;;;;5025307;28;20028;-78
2023/08/22 07:03:03;;;;;;;5.07;4.53;;;24.90;73.80;;;;;;5034150;28;20026;-77
2023/08/22 07:05:29;;;;;;;5.45;4.38;;;25.00;76.50;;;;;;5050167;28;20067;-78
2023/08/22 07:07:55;;;;;;;5.70;4.70;;;25.10;74.50;;;;;;5034691;28;20534;-77
2023/08/22 07:10:21;;;;;;;5.25;4.75;;;25.30;74.60;;;;;;5033712;28;20045;-78
2023/08/22 07:12:46;;;;;;;6.70;4.30;;;25.30;71.90;;;;;;5034120;28;20061;-76
2023/08/22 07:15:12;;;;;;;6.35;4.13;;;25.40;69.50;;;;;;5050301;28;20518;-77
2023/08/22 07:17:38;;;;;;;5.25;4.07;;;25.50;69.50;;;;;;5035208;28;20046;-79
2023/08/22 07:20:04;;;;;;;5.13;4.63;;;25.60;69.20;;;;;;5034194;28;20017;-80
2023/08/22 07:22:29;;;;;;;3.78;3.47;;;25.70;68.30;;;;;;5035005;28;20021;-80
2023/08/22 07:24:55;;;;;;;6.82;4.22;;;25.80;66.50;;;;;;5035009;28;20503;-78
2023/08/22 07:27:21;;;;;;;5.65;4.05;;;25.90;66.10;;;;;;5034035;28;20049;-78
2023/08/22 07:29:47;;;;;;;4.80;4.40;;;26.00;67.20;;;;;;5034924;28;20048;-80
2023/08/22 07:32:12;;;;;;;5.95;4.28;;;26.10;65.80;;;;;;5035206;28;20022;-80
2023/08/22 07:34:38;;;;;;;5.20;4.50;;;26.20;63.80;;;;;;5049696;28;20479;-81
2023/08/22 07:37:04;;;;;;;9.68;7.25;;;26.20;64.80;;;;;;5033698;28;20060;-81
2023/08/22 07:39:29;;;;;;;4.57;4.15;;;26.40;64.50;;;;;;5034699;28;20479;-80
2023/08/22 07:41:55;;;;;;;5.22;4.35;;;26.50;64.80;;;;;;5035189;28;20108;-78
2023/08/22 07:44:23;;;;;;;5.13;3.92;;;26.60;65.00;;;;;;5033117;28;20056;-78
2023/08/22 07:46:50;;;;;;;4.80;4.15;;;26.70;62.30;;;;;;5034922;28;20489;-80
2023/08/22 07:49:15;;;;;;;5.85;4.35;;;26.80;62.50;;;;;;5033554;28;20574;-80
2023/08/22 07:51:41;;;;;;;6.60;4.68;;;26.80;61.80;;;;;;5033385;28;20037;-78
2023/08/22 07:54:07;;;;;;;6.38;4.22;;;26.90;61.90;;;;;;5033007;28;20026;-80
2023/08/22 07:56:34;;;;;;;5.72;4.93;;;26.90;61.60;;;;;;5034603;28;20092;-80
2023/08/22 07:59:00;;;;;;;6.20;5.20;;;27.00;61.90;;;;;;5048239;28;20105;-78
2023/08/22 08:01:26;;;;;;;10.63;5.15;;;27.00;61.80;;;;;;5033452;28;20056;-81
2023/08/22 08:03:51;;;;;;;5.60;4.70;;;27.10;61.20;;;;;;5033112;28;20111;-78
2023/08/22 08:06:17;;;;;;;7.55;6.35;;;27.30;62.50;;;;;;5033153;28;20174;-81
2023/08/22 08:08:43;;;;;;;7.82;6.30;;;27.20;60.70;;;;;;5034131;28;20131;-81
2023/08/22 08:11:08;;;;;;;8.10;6.65;;;27.20;61.40;;;;;;5034039;28;20025;-78
2023/08/22 08:13:34;;;;;;;7.28;6.00;;;27.30;60.80;;;;;;5033173;28;20033;-78
2023/08/22 08:15:59;;;;;;;7.55;6.50;;;27.30;61.00;;;;;;5033067;28;20044;-78
2023/08/22 08:18:25;;;;;;;8.68;7.10;;;27.40;60.60;;;;;;5033403;28;20064;-80
2023/08/22 08:20:51;;;;;;;9.88;8.05;;;27.50;60.60;;;;;;5033102;28;20032;-77
2023/08/22 08:23:17;;;;;;;8.18;7.35;;;27.50;59.40;;;;;;5032534;28;20091;-77
2023/08/22 08:25:43;;;;;;;8.02;7.15;;;27.50;59.40;;;;;;5034172;28;20026;-80
2023/08/22 08:28:09;;;;;;;9.82;6.97;;;27.50;59.20;;;;;;5032652;28;20025;-77
2023/08/22 08:30:35;;;;;;;10.05;8.18;;;27.50;59.40;;;;;;5031843;28;20041;-77
2023/08/22 08:33:04;;;;;;;9.95;7.82;;;27.50;58.80;;;;;;5033698;28;20060;-81
2023/08/22 08:35:29;;;;;;;8.23;6.60;;;27.50;59.50;;;;;;5032630;28;20025;-81
2023/08/22 08:37:57;;;;;;;10.82;7.57;;;27.70;59.30;;;;;;5033549;28;20034;-78
2023/08/22 08:40:22;;;;;;;9.70;7.50;;;27.70;59.50;;;;;;5030902;28;20067;-77
2023/08/22 08:42:49;;;;;;;10.63;8.63;;;27.80;59.50;;;;;;5032372;28;20021;-77
2023/08/22 08:45:16;;;;;;;8.95;7.85;;;27.80;58.50;;;;;;5032476;28;20030;-78
2023/08/22 08:47:42;;;;;;;10.32;7.47;;;27.80;57.80;;;;;;5032050;28;20363;-81
2023/08/22 08:50:09;;;;;;;7.90;6.80;;;27.80;56.20;;;;;;5033697;28;20570;-81
2023/08/22 08:52:35;;;;;;;6.55;5.55;;;27.80;56.30;;;;;;5032214;28;20029;-81
2023/08/22 08:55:04;;;;;;;9.00;5.72;;;27.80;56.10;;;;;;5033543;28;20029;-81
2023/08/22 08:57:31;;;;;;;9.60;6.03;;;27.90;56.40;;;;;;5031898;28;20040;-81
2023/08/22 08:59:59;;;;;;;10.10;5.35;;;27.90;56.50;;;;;;5033486;28;20022;-78
2023/08/22 09:02:25;;;;;;;6.22;5.43;;;28.10;54.90;;;;;;5031972;28;20474;-78
2023/08/22 09:04:51;;;;;;;11.88;5.50;;;28.00;55.30;;;;;;5032379;28;20104;-81
2023/08/22 09:07:18;;;;;;;6.78;4.82;;;28.00;54.50;;;;;;5033111;28;20013;-81
2023/08/22 09:09:43;;;;;;;6.65;4.93;;;28.20;55.40;;;;;;5031967;28;20022;-78
2023/08/22 09:12:10;;;;;;;5.00;4.53;;;28.30;55.80;;;;;;5031761;28;20063;-81
2023/08/22 09:14:45;;;;;;;4.85;4.38;;;28.40;54.20;;;;;;5033289;28;20021;-81
2023/08/22 09:17:17;;;;;;;4.30;3.90;;;28.50;53.90;;;;;;5031508;28;20095;-81
2023/08/22 09:19:43;;;;;;;6.18;4.28;;;28.70;52.50;;;;;;5033258;28;20034;-81
2023/08/22 09:22:13;;;;;;;5.05;4.65;;;28.80;52.50;;;;;;5031338;28;20013;-78
2023/08/22 09:24:38;;;;;;;4.70;4.30;;;28.90;53.20;;;;;;5032054;28;20046;-81
2023/08/22 09:27:05;;;;;;;7.00;4.88;;;28.80;51.80;;;;;;5019990;28;20033;-78
2023/08/22 09:29:34;;;;;;;9.60;4.40;;;28.90;52.00;;;;;;5032697;28;20021;-81
2023/08/22 09:32:07;;;;;;;7.28;4.68;;;29.00;50.90;;;;;;5020589;28;20022;-78
2023/08/22 09:34:34;;;;;;;5.13;4.50;;;29.10;50.20;;;;;;5033115;28;20087;-81
2023/08/22 09:37:00;;;;;;;5.05;4.40;;;29.20;51.20;;;;;;5032314;28;20029;-78
2023/08/22 09:39:28;;;;;;;4.65;4.20;;;29.10;50.20;;;;;;5031362;28;20866;-82
2023/08/22 09:41:58;;;;;;;4.43;3.92;;;29.30;50.50;;;;;;5031713;28;20022;-81
2023/08/22 09:44:28;;;;;;;5.45;4.68;;;29.30;50.60;;;;;;5032409;28;20025;-78
2023/08/22 09:46:55;;;;;;;6.82;4.57;;;29.10;50.60;;;;;;5031676;28;20071;-78
2023/08/22 09:49:22;;;;;;;5.68;4.53;;;29.20;50.50;;;;;;5032370;28;20036;-78
2023/08/22 09:51:50;;;;;;;5.68;4.85;;;29.10;51.10;;;;;;5032796;28;20021;-78
2023/08/22 09:54:16;;;;;;;6.72;5.15;;;29.20;53.30;;;;;;5030975;28;20014;-81
2023/08/22 09:56:43;;;;;;;5.22;4.80;;;29.30;52.20;;;;;;5031638;28;20087;-81
2023/08/22 09:59:10;;;;;;;5.35;4.85;;;29.40;52.90;;;;;;5032539;28;20033;-78
2023/08/22 10:01:40;;;;;;;4.90;4.32;;;29.40;51.10;;;;;;5035387;28;20022;-78
2023/08/22 10:04:06;;;;;;;6.28;4.25;;;29.50;51.80;;;;;;5034801;28;20063;-81
2023/08/22 10:06:34;;;;;;;5.38;4.70;;;29.40;50.40;;;;;;5036873;28;20044;-79
2023/08/22 10:09:07;;;;;;;5.65;4.78;;;29.40;51.20;;;;;;5036380;28;20045;-76
2023/08/22 10:11:36;;;;;;;6.68;4.75;;;29.50;51.60;;;;;;5037009;28;20049;-76
2023/08/22 10:14:03;;;;;;;6.60;4.88;;;29.60;51.40;;;;;;5035100;28;20368;-79
2023/08/22 10:16:30;;;;;;;9.93;4.47;;;29.60;51.80;;;;;;5036508;28;20438;-76
2023/08/22 10:19:01;;;;;;;5.53;5.00;;;29.50;51.30;;;;;;5036602;28;20034;-79
2023/08/22 10:21:32;;;;;;;5.70;5.07;;;29.40;51.00;;;;;;5038212;28;20479;-80
2023/08/22 10:23:58;;;;;;;5.88;5.15;;;29.20;50.70;;;;;;5036411;28;20021;-80
2023/08/22 10:26:27;;;;;;;6.25;5.32;;;29.30;51.20;;;;;;5036245;28;20017;-76
2023/08/22 10:29:33;;;;;;;5.93;4.43;;;29.30;51.20;;;;;;5035156;28;20032;-77
2023/08/22 10:32:02;;;;;;;5.70;5.15;;;29.40;51.40;;;;;;5034304;28;20025;-80
2023/08/22 10:34:39;;;;;;;5.82;5.30;;;29.50;50.50;;;;;;5016342;28;20029;-80
2023/08/22 10:37:18;;;;;;;6.63;5.07;;;29.30;50.00;;;;;;5024780;28;20514;-80
2023/08/22 10:39:48;;;;;;;13.05;4.40;;;29.20;50.10;;;;;;5034851;28;20036;-77
2023/08/22 10:42:17;;;;;;;6.45;4.85;;;29.20;51.00;;;;;;5035915;28;20352;-80
2023/08/22 10:44:47;;;;;;;5.18;4.68;;;29.40;51.70;;;;;;5036080;28;20021;-77
2023/08/22 10:47:21;;;;;;;6.70;4.53;;;29.40;50.20;;;;;;5034801;28;20021;-80
2023/08/22 10:49:52;;;;;;;6.20;5.18;;;29.50;50.00;;;;;;5038778;28;20097;-77
2023/08/22 10:52:24;;;;;;;7.85;5.00;;;29.70;50.20;;;;;;5035672;28;20014;-80
2023/08/22 10:55:11;;;;;;;7.93;4.80;;;29.80;49.50;;;;;;5034619;28;20029;-80
2023/08/22 10:57:46;;;;;;;5.15;4.60;;;29.90;49.60;;;;;;5034284;28;20032;-77
2023/08/22 11:00:18;;;;;;;5.95;4.85;;;29.70;49.40;;;;;;5035627;28;20156;-80
2023/08/22 11:02:44;;;;;;;;;;;29.60;49.00;;;;;;5023857;28;20427;-80
2023/08/22 11:05:14;;;;;;;5.20;4.72;;;29.50;49.30;;;;;;5035510;28;19999;-77
2023/08/22 11:07:46;;;;;;;4.93;4.38;;;29.50;49.30;;;;;;5035770;28;20131;-80
2023/08/22 11:10:25;;;;;;;5.55;4.80;;;29.40;49.00;;;;;;5033788;28;20028;-77
2023/08/22 11:12:54;;;;;;;5.90;4.63;;;29.60;51.10;;;;;;5034208;28;20052;-80
2023/08/22 11:15:20;;;;;;;6.35;5.10;;;29.70;48.70;;;;;;5034794;28;20121;-77
2023/08/22 11:17:47;;;;;;;5.55;5.10;;;29.90;49.00;;;;;;5033775;28;20473;-81
2023/08/22 11:20:14;;;;;;;7.53;5.15;;;29.70;48.70;;;;;;5033800;28;20479;-80
2023/08/22 11:22:42;;;;;;;7.22;5.00;;;29.80;49.50;;;;;;5035349;28;20013;-80
2023/08/22 11:25:12;;;;;;;6.90;4.95;;;29.80;48.60;;;;;;5034011;28;20450;-77
2023/08/22 11:27:39;;;;;;;5.95;4.50;;;29.90;48.70;;;;;;5034955;28;20017;-77
2023/08/22 11:30:06;;;;;;;5.35;4.50;;;29.90;47.90;;;;;;5033535;28;20017;-80
2023/08/22 11:32:34;;;;;;;4.63;4.22;;;29.90;48.80;;;;;;5034052;28;20036;-81
2023/08/22 11:35:03;;;;;;;4.90;4.15;;;30.00;49.90;;;;;;5034936;28;20076;-77
2023/08/22 11:37:31;;;;;;;5.22;4.35;;;30.20;50.50;;;;;;5033858;28;20021;-81
2023/08/22 11:40:00;;;;;;;5.40;4.18;;;30.30;49.80;;;;;;5034966;28;20021;-77
2023/08/22 11:42:30;;;;;;;4.32;3.92;;;30.40;49.20;;;;;;5033550;28;20032;-77
2023/08/22 11:45:08;;;;;;;5.38;4.13;;;30.60;48.90;;;;;;5034629;28;20040;-77
2023/08/22 11:47:40;;;;;;;5.65;4.30;;;30.60;47.40;;;;;;5033225;28;20025;-81
2023/08/22 11:50:06;;;;;;;6.63;4.75;;;30.50;47.10;;;;;;5034682;28;20033;-80
2023/08/22 11:52:32;;;;;;;4.50;4.10;;;30.50;46.90;;;;;;5033109;28;20036;-77
2023/08/22 11:55:03;;;;;;;4.40;4.00;;;30.30;46.90;;;;;;5033053;28;20025;-76
2023/08/22 11:57:28;;;;;;;4.22;3.92;;;30.30;47.70;;;;;;5033253;28;20025;-81
2023/08/22 11:59:55;;;;;;;6.38;4.63;;;30.30;47.60;;;;;;5033294;28;20536;-80
2023/08/22 12:02:20;;;;;;;4.60;4.20;;;30.30;47.20;;;;;;5032975;28;20022;-81
2023/08/22 12:04:47;;;;;;;6.40;4.00;;;30.10;46.90;;;;;;5049130;28;20511;-81
2023/08/22 12:07:13;;;;;;;4.18;3.78;;;30.00;47.60;;;;;;5033372;28;20479;-81
2023/08/22 12:09:39;;;;;;;4.47;4.00;;;29.90;47.70;;;;;;5032904;28;20032;-80
2023/08/22 12:12:09;;;;;;;6.88;4.15;;;29.90;48.90;;;;;;5034260;28;20049;-77
2023/08/22 12:14:35;;;;;;;4.55;4.15;;;29.90;49.50;;;;;;5034592;28;20036;-81
2023/08/22 12:17:01;;;;;;;4.93;4.43;;;30.00;50.30;;;;;;5032629;28;20491;-80
2023/08/22 12:19:26;;;;;;;4.90;4.28;;;30.10;50.10;;;;;;5032922;28;20037;-76
2023/08/22 12:21:52;;;;;;;5.80;4.55;;;30.20;48.30;;;;;;5032691;28;20028;-80
2023/08/22 12:24:17;;;;;;;6.38;4.60;;;30.40;47.80;;;;;;5032404;28;20017;-81
2023/08/22 12:26:43;;;;;;;5.15;4.35;;;30.70;46.80;;;;;;5032750;28;20030;-80
2023/08/22 12:29:08;;;;;;;4.55;4.05;;;30.70;46.00;;;;;;5032711;28;20029;-76
2023/08/22 12:31:34;;;;;;;5.15;4.30;;;30.90;45.80;;;;;;5033224;28;20427;-77
2023/08/22 12:34:00;;;;;;;5.78;4.85;;;31.10;46.70;;;;;;5032639;28;20446;-77
2023/08/22 12:36:26;;;;;;;4.80;4.30;;;31.10;47.00;;;;;;5032320;28;20018;-76
2023/08/22 12:38:51;;;;;;;5.30;4.45;;;31.20;47.50;;;;;;5033695;28;20067;-77
2023/08/22 12:41:17;;;;;;;6.18;4.55;;;31.20;47.50;;;;;;5032436;28;20101;-77